createdAt,value
2019-06-10T00:00:50.981Z,21.92
2019-06-10T00:01:51.408Z,21.92
2019-06-10T00:02:50.949Z,21.95
2019-06-10T00:03:51.802Z,21.94
2019-06-10T00:04:50.934Z,21.90
2019-06-10T00:05:51.768Z,21.91
2019-06-10T00:06:51.070Z,21.90
2019-06-10T00:07:51.593Z,21.90
2019-06-10T00:08:50.907Z,21.85
2019-06-10T00:09:51.225Z,21.79
2019-06-10T00:10:51.217Z,21.85
2019-06-10T00:11:51.466Z,21.79
2019-06-10T00:12:51.432Z,21.82
2019-06-10T00:13:50.893Z,21.81
2019-06-10T00:14:51.060Z,21.79
2019-06-10T00:15:51.501Z,21.82
2019-06-10T00:16:51.064Z,21.91
2019-06-10T00:18:01.355Z,21.88
2019-06-10T00:18:51.791Z,21.83
2019-06-10T00:19:51.232Z,21.79
2019-06-10T00:20:51.290Z,21.71
2019-06-10T00:21:51.044Z,21.69
2019-06-10T00:22:51.515Z,21.71
2019-06-10T00:23:51.838Z,21.66
2019-06-10T00:24:52.210Z,21.69
2019-06-10T00:25:51.549Z,21.63
2019-06-10T00:26:51.220Z,21.64
2019-06-10T00:27:51.168Z,21.64
2019-06-10T00:28:51.304Z,21.54
2019-06-10T00:29:51.268Z,21.56
2019-06-10T00:30:51.582Z,21.53
2019-06-10T00:31:50.935Z,21.41
2019-06-10T00:32:51.566Z,21.42
2019-06-10T00:33:51.962Z,21.41
2019-06-10T00:34:50.893Z,21.32
2019-06-10T00:35:51.507Z,21.34
2019-06-10T00:36:51.049Z,21.26
2019-06-10T00:37:51.241Z,21.19
2019-06-10T00:38:51.708Z,21.20
2019-06-10T00:39:51.247Z,21.13
2019-06-10T00:40:51.371Z,21.14
2019-06-10T00:41:52.112Z,21.14
2019-06-10T00:42:50.807Z,21.20
2019-06-10T00:43:51.662Z,21.19
2019-06-10T00:44:50.883Z,21.21
2019-06-10T00:45:51.347Z,21.19
2019-06-10T00:46:51.599Z,21.20
2019-06-10T00:47:52.051Z,21.17
2019-06-10T00:48:51.431Z,21.19
2019-06-10T00:49:51.493Z,21.14
2019-06-10T00:50:51.836Z,21.20
2019-06-10T00:51:50.985Z,21.06
2019-06-10T00:52:51.640Z,21.20
2019-06-10T00:53:51.410Z,21.19
2019-06-10T00:54:51.887Z,21.17
2019-06-10T00:55:51.579Z,21.13
2019-06-10T00:56:51.791Z,21.14
2019-06-10T00:57:50.951Z,21.13
2019-06-10T00:58:51.375Z,21.13
2019-06-10T00:59:50.858Z,21.14
2019-06-10T01:00:51.656Z,21.06
2019-06-10T01:01:50.861Z,21.05
2019-06-10T01:02:51.784Z,21.08
2019-06-10T01:03:50.926Z,21.04
2019-06-10T01:04:51.403Z,21.08
2019-06-10T01:05:50.846Z,21.08
2019-06-10T01:06:51.414Z,21.14
2019-06-10T01:07:50.796Z,21.09
2019-06-10T01:08:51.214Z,21.13
2019-06-10T01:09:57.978Z,21.13
2019-06-10T01:10:52.241Z,21.05
2019-06-10T01:11:51.954Z,21.05
2019-06-10T01:12:51.312Z,21.04
2019-06-10T01:13:50.822Z,21.05
2019-06-10T01:14:51.715Z,21.06
2019-06-10T01:15:51.155Z,21.05
2019-06-10T01:16:50.612Z,21.05
2019-06-10T01:17:51.126Z,21.01
2019-06-10T01:18:53.232Z,20.95
2019-06-10T01:19:50.888Z,20.99
2019-06-10T01:20:51.691Z,20.99
2019-06-10T01:21:51.149Z,20.95
2019-06-10T01:22:51.611Z,20.96
2019-06-10T01:23:51.023Z,20.96
2019-06-10T01:24:51.085Z,21.02
2019-06-10T01:25:51.060Z,20.96
2019-06-10T01:26:50.559Z,20.91
2019-06-10T01:27:51.510Z,21.01
2019-06-10T01:28:51.675Z,20.98
2019-06-10T01:29:51.093Z,20.91
2019-06-10T01:30:51.687Z,20.93
2019-06-10T01:31:51.240Z,20.96
2019-06-10T01:32:50.619Z,20.96
2019-06-10T01:33:51.307Z,20.93
2019-06-10T01:34:50.825Z,20.93
2019-06-10T01:35:51.436Z,20.96
2019-06-10T01:36:50.950Z,20.98
2019-06-10T01:37:51.854Z,20.93
2019-06-10T01:38:51.126Z,21.01
2019-06-10T01:39:51.507Z,20.98
2019-06-10T01:40:50.923Z,21.05
2019-06-10T01:41:51.195Z,20.96
2019-06-10T01:42:50.629Z,20.99
2019-06-10T01:43:51.331Z,21.09
2019-06-10T01:44:50.696Z,21.01
2019-06-10T01:45:51.156Z,20.99
2019-06-10T01:46:51.606Z,20.98
2019-06-10T01:47:51.132Z,21.04
2019-06-10T01:48:52.078Z,21.06
2019-06-10T01:49:51.671Z,21.06
2019-06-10T01:50:51.329Z,21.06
2019-06-10T01:51:51.608Z,21.16
2019-06-10T01:52:51.558Z,21.08
2019-06-10T01:53:51.285Z,21.19
2019-06-10T01:54:51.554Z,21.09
2019-06-10T01:55:51.826Z,21.05
2019-06-10T01:56:51.027Z,21.11
2019-06-10T01:57:51.785Z,21.09
2019-06-10T01:58:51.395Z,21.08
2019-06-10T01:59:50.927Z,21.08
2019-06-10T02:00:50.735Z,21.17
2019-06-10T02:01:51.638Z,21.19
2019-06-10T02:02:52.374Z,21.19
2019-06-10T02:03:51.734Z,21.16
2019-06-10T02:04:51.727Z,21.23
2019-06-10T02:05:51.649Z,21.23
2019-06-10T02:06:51.127Z,21.20
2019-06-10T02:07:51.529Z,21.19
2019-06-10T02:08:51.007Z,21.24
2019-06-10T02:09:51.606Z,21.14
2019-06-10T02:10:50.970Z,21.16
2019-06-10T02:11:51.366Z,21.19
2019-06-10T02:12:50.875Z,21.19
2019-06-10T02:13:51.423Z,21.16
2019-06-10T02:14:50.912Z,21.08
2019-06-10T02:15:51.372Z,21.17
2019-06-10T02:16:50.673Z,21.06
2019-06-10T02:17:50.984Z,21.11
2019-06-10T02:19:00.242Z,21.04
2019-06-10T02:19:50.920Z,21.05
2019-06-10T02:20:51.351Z,21.01
2019-06-10T02:21:51.048Z,20.99
2019-06-10T02:22:51.421Z,20.96
2019-06-10T02:23:51.594Z,20.98
2019-06-10T02:24:50.643Z,21.02
2019-06-10T02:25:51.266Z,21.04
2019-06-10T02:26:51.495Z,21.09
2019-06-10T02:27:50.776Z,21.09
2019-06-10T02:28:51.252Z,21.08
2019-06-10T02:29:50.720Z,21.05
2019-06-10T02:30:51.914Z,21.08
2019-06-10T02:31:52.221Z,21.02
2019-06-10T02:32:52.149Z,21.13
2019-06-10T02:33:52.386Z,21.05
2019-06-10T02:35:03.547Z,21.04
2019-06-10T02:35:53.567Z,21.13
2019-06-10T02:36:49.244Z,21.04
2019-06-10T02:37:49.232Z,21.01
2019-06-10T02:38:49.226Z,20.99
2019-06-10T02:39:49.214Z,21.04
2019-06-10T02:40:49.232Z,21.01
2019-06-10T02:41:49.194Z,20.98
2019-06-10T02:42:49.174Z,20.99
2019-06-10T02:43:49.163Z,20.96
2019-06-10T02:44:49.159Z,20.93
2019-06-10T02:45:49.148Z,21.01
2019-06-10T02:46:49.153Z,20.89
2019-06-10T02:47:49.120Z,20.61
2019-06-10T02:48:49.125Z,20.20
2019-06-10T02:49:59.029Z,19.65
2019-06-10T02:50:53.478Z,19.15
2019-06-10T02:51:49.102Z,18.80
2019-06-10T02:52:49.074Z,18.50
2019-06-10T02:53:49.057Z,18.21
2019-06-10T02:54:49.050Z,17.89
2019-06-10T02:55:49.036Z,17.73
2019-06-10T02:56:49.022Z,17.59
2019-06-10T02:57:49.029Z,17.48
2019-06-10T02:58:49.000Z,17.48
2019-06-10T02:59:48.991Z,17.38
2019-06-10T03:00:49.453Z,17.40
2019-06-10T03:01:48.969Z,17.33
2019-06-10T03:02:48.965Z,17.26
2019-06-10T03:03:49.797Z,17.20
2019-06-10T03:04:48.942Z,17.15
2019-06-10T03:05:48.983Z,17.14
2019-06-10T03:06:48.912Z,17.14
2019-06-10T03:07:48.921Z,17.17
2019-06-10T03:08:48.893Z,17.20
2019-06-10T03:09:48.878Z,17.18
2019-06-10T03:10:48.871Z,17.17
2019-06-10T03:11:48.859Z,17.22
2019-06-10T03:12:48.853Z,17.10
2019-06-10T03:13:48.837Z,17.10
2019-06-10T03:14:48.827Z,17.18
2019-06-10T03:15:48.815Z,17.07
2019-06-10T03:16:48.799Z,17.15
2019-06-10T03:17:48.812Z,17.20
2019-06-10T03:18:48.784Z,17.17
2019-06-10T03:19:50.774Z,17.18
2019-06-10T03:20:48.759Z,17.25
2019-06-10T03:21:48.748Z,17.28
2019-06-10T03:22:48.734Z,17.25
2019-06-10T03:23:48.733Z,17.23
2019-06-10T03:24:48.711Z,17.30
2019-06-10T03:25:48.702Z,17.29
2019-06-10T03:26:48.695Z,17.30
2019-06-10T03:27:48.676Z,17.33
2019-06-10T03:28:48.701Z,17.33
2019-06-10T03:29:48.659Z,17.43
2019-06-10T03:30:53.928Z,17.53
2019-06-10T03:31:49.702Z,17.54
2019-06-10T03:32:48.631Z,17.50
2019-06-10T03:33:48.613Z,17.55
2019-06-10T03:34:48.617Z,17.62
2019-06-10T03:35:48.608Z,17.59
2019-06-10T03:36:48.579Z,17.59
2019-06-10T03:37:48.570Z,17.59
2019-06-10T03:38:48.581Z,17.69
2019-06-10T03:39:48.548Z,17.69
2019-06-10T03:40:48.660Z,17.76
2019-06-10T03:41:48.530Z,17.67
2019-06-10T03:42:48.514Z,17.76
2019-06-10T03:43:48.506Z,17.79
2019-06-10T03:44:48.498Z,17.79
2019-06-10T03:45:48.483Z,17.76
2019-06-10T03:46:48.484Z,17.82
2019-06-10T03:47:48.455Z,17.84
2019-06-10T03:48:48.448Z,17.91
2019-06-10T03:49:52.522Z,17.84
2019-06-10T03:50:49.428Z,17.81
2019-06-10T03:51:48.450Z,17.78
2019-06-10T03:52:48.403Z,17.66
2019-06-10T03:53:48.390Z,17.76
2019-06-10T03:54:48.380Z,17.67
2019-06-10T03:55:48.366Z,17.67
2019-06-10T03:56:48.355Z,17.74
2019-06-10T03:57:48.356Z,17.79
2019-06-10T03:58:48.338Z,17.79
2019-06-10T03:59:48.327Z,17.73
2019-06-10T04:00:48.315Z,17.70
2019-06-10T04:01:48.298Z,17.73
2019-06-10T04:02:48.307Z,17.66
2019-06-10T04:03:48.277Z,17.71
2019-06-10T04:04:48.263Z,17.59
2019-06-10T04:05:48.264Z,17.44
2019-06-10T04:06:48.246Z,17.50
2019-06-10T04:07:48.231Z,17.48
2019-06-10T04:08:48.235Z,17.46
2019-06-10T04:09:48.210Z,17.54
2019-06-10T04:10:48.199Z,17.54
2019-06-10T04:11:48.192Z,17.50
2019-06-10T04:12:48.177Z,17.55
2019-06-10T04:13:48.165Z,17.43
2019-06-10T04:14:48.167Z,17.50
2019-06-10T04:15:48.143Z,17.63
2019-06-10T04:16:48.136Z,17.48
2019-06-10T04:17:48.121Z,17.62
2019-06-10T04:18:48.126Z,17.46
2019-06-10T04:19:48.095Z,17.57
2019-06-10T04:20:48.095Z,17.63
2019-06-10T04:21:48.083Z,17.55
2019-06-10T04:22:48.066Z,17.63
2019-06-10T04:23:48.066Z,17.76
2019-06-10T04:24:48.044Z,17.73
2019-06-10T04:25:48.036Z,17.70
2019-06-10T04:26:48.023Z,17.64
2019-06-10T04:27:48.007Z,17.64
2019-06-10T04:28:48.052Z,17.63
2019-06-10T04:29:47.994Z,17.63
2019-06-10T04:30:47.976Z,17.64
2019-06-10T04:31:47.968Z,17.59
2019-06-10T04:32:47.962Z,17.62
2019-06-10T04:33:47.939Z,17.59
2019-06-10T04:34:47.946Z,17.55
2019-06-10T04:35:47.926Z,17.67
2019-06-10T04:36:47.911Z,17.62
2019-06-10T04:37:47.895Z,17.66
2019-06-10T04:38:47.889Z,17.59
2019-06-10T04:39:47.898Z,17.62
2019-06-10T04:40:47.862Z,17.54
2019-06-10T04:41:47.851Z,17.64
2019-06-10T04:42:47.844Z,17.59
2019-06-10T04:43:47.836Z,17.50
2019-06-10T04:44:47.826Z,17.47
2019-06-10T04:45:47.818Z,17.46
2019-06-10T04:46:47.813Z,17.43
2019-06-10T04:47:47.787Z,17.32
2019-06-10T04:48:47.773Z,17.32
2019-06-10T04:49:47.763Z,17.26
2019-06-10T04:50:47.751Z,17.25
2019-06-10T04:51:47.752Z,17.26
2019-06-10T04:52:47.733Z,17.26
2019-06-10T04:53:47.723Z,17.25
2019-06-10T04:54:47.706Z,17.20
2019-06-10T04:55:47.699Z,17.25
2019-06-10T04:56:47.684Z,17.26
2019-06-10T04:57:47.681Z,17.28
2019-06-10T04:58:47.659Z,17.25
2019-06-10T04:59:47.649Z,17.25
2019-06-10T05:00:47.636Z,17.29
2019-06-10T05:01:47.632Z,17.36
2019-06-10T05:02:47.627Z,17.38
2019-06-10T05:03:47.622Z,17.35
2019-06-10T05:04:47.610Z,17.40
2019-06-10T05:05:47.587Z,17.43
2019-06-10T05:06:47.582Z,17.38
2019-06-10T05:07:47.563Z,17.41
2019-06-10T05:08:47.551Z,17.46
2019-06-10T05:09:47.544Z,17.53
2019-06-10T05:10:47.527Z,17.44
2019-06-10T05:11:47.559Z,17.59
2019-06-10T05:12:47.503Z,17.62
2019-06-10T05:13:47.492Z,17.59
2019-06-10T05:14:47.483Z,17.69
2019-06-10T05:15:47.476Z,17.67
2019-06-10T05:16:47.461Z,17.55
2019-06-10T05:17:47.459Z,17.70
2019-06-10T05:18:47.444Z,17.69
2019-06-10T05:19:47.432Z,17.74
2019-06-10T05:20:57.748Z,17.62
2019-06-10T05:21:48.410Z,17.70
2019-06-10T05:22:47.401Z,17.67
2019-06-10T05:23:47.385Z,17.69
2019-06-10T05:24:47.371Z,17.69
2019-06-10T05:25:47.363Z,17.70
2019-06-10T05:26:47.347Z,17.79
2019-06-10T05:27:47.379Z,17.84
2019-06-10T05:28:47.329Z,17.74
2019-06-10T05:29:47.312Z,17.79
2019-06-10T05:30:47.305Z,17.82
2019-06-10T05:31:47.292Z,17.85
2019-06-10T05:32:47.279Z,17.85
2019-06-10T05:33:47.280Z,17.85
2019-06-10T05:34:47.261Z,17.91
2019-06-10T05:35:47.267Z,17.95
2019-06-10T05:36:47.243Z,17.95
2019-06-10T05:37:47.224Z,17.84
2019-06-10T05:38:47.217Z,17.94
2019-06-10T05:39:47.209Z,17.91
2019-06-10T05:40:47.219Z,17.84
2019-06-10T05:41:50.122Z,17.84
2019-06-10T05:42:47.168Z,17.85
2019-06-10T05:43:47.158Z,17.82
2019-06-10T05:44:47.147Z,17.84
2019-06-10T05:45:47.136Z,17.74
2019-06-10T05:46:47.138Z,17.67
2019-06-10T05:47:47.115Z,17.67
2019-06-10T05:48:47.115Z,17.67
2019-06-10T05:49:47.096Z,17.63
2019-06-10T05:50:59.269Z,17.57
2019-06-10T05:51:48.086Z,17.59
2019-06-10T05:52:47.056Z,17.59
2019-06-10T05:53:47.046Z,17.62
2019-06-10T05:54:47.035Z,17.64
2019-06-10T05:55:47.025Z,17.57
2019-06-10T05:56:47.024Z,17.59
2019-06-10T05:57:47.016Z,17.63
2019-06-10T05:58:46.996Z,17.57
2019-06-10T05:59:46.980Z,17.74
2019-06-10T06:00:46.967Z,17.67
2019-06-10T06:01:46.967Z,17.81
2019-06-10T06:02:46.967Z,17.87
2019-06-10T06:03:46.951Z,17.84
2019-06-10T06:04:46.928Z,17.94
2019-06-10T06:05:46.924Z,17.92
2019-06-10T06:06:46.903Z,17.85
2019-06-10T06:08:01.354Z,17.84
2019-06-10T06:08:47.884Z,17.95
2019-06-10T06:09:46.876Z,17.97
2019-06-10T06:10:46.864Z,18.00
2019-06-10T06:11:46.854Z,18.04
2019-06-10T06:12:46.835Z,18.03
2019-06-10T06:13:46.873Z,18.00
2019-06-10T06:14:46.821Z,17.95
2019-06-10T06:15:46.809Z,17.95
2019-06-10T06:16:46.804Z,17.99
2019-06-10T06:17:46.780Z,17.97
2019-06-10T06:18:46.781Z,18.00
2019-06-10T06:19:46.785Z,18.06
2019-06-10T06:20:46.753Z,18.13
2019-06-10T06:21:47.918Z,18.07
2019-06-10T06:22:46.727Z,18.15
2019-06-10T06:23:46.715Z,18.22
2019-06-10T06:24:46.709Z,18.27
2019-06-10T06:25:47.159Z,18.33
2019-06-10T06:26:46.694Z,18.33
2019-06-10T06:27:46.670Z,18.42
2019-06-10T06:28:46.664Z,18.44
2019-06-10T06:29:46.651Z,18.55
2019-06-10T06:30:46.651Z,18.57
2019-06-10T06:31:46.642Z,18.62
2019-06-10T06:32:46.616Z,18.68
2019-06-10T06:33:46.619Z,18.73
2019-06-10T06:34:46.593Z,18.74
2019-06-10T06:35:46.860Z,18.77
2019-06-10T06:36:46.583Z,18.79
2019-06-10T06:37:46.567Z,18.77
2019-06-10T06:38:46.552Z,18.79
2019-06-10T06:39:46.547Z,18.91
2019-06-10T06:40:46.555Z,18.84
2019-06-10T06:41:46.531Z,18.87
2019-06-10T06:42:46.518Z,18.94
2019-06-10T06:43:46.507Z,19.02
2019-06-10T06:44:46.512Z,18.90
2019-06-10T06:45:46.479Z,18.90
2019-06-10T06:46:46.485Z,19.05
2019-06-10T06:47:46.449Z,18.91
2019-06-10T06:48:46.440Z,18.91
2019-06-10T06:49:46.427Z,18.90
2019-06-10T06:51:00.402Z,18.87
2019-06-10T06:51:55.117Z,18.84
2019-06-10T06:53:19.016Z,18.86
2019-06-10T06:53:52.022Z,18.84
2019-06-10T06:54:47.379Z,18.92
2019-06-10T06:55:47.067Z,18.82
2019-06-10T06:56:46.369Z,18.73
2019-06-10T06:57:46.343Z,18.91
2019-06-10T06:58:46.335Z,18.80
2019-06-10T06:59:46.322Z,18.76
2019-06-10T07:01:00.536Z,18.79
2019-06-10T07:01:47.320Z,18.86
2019-06-10T07:02:46.288Z,18.87
2019-06-10T07:03:46.275Z,18.91
2019-06-10T07:04:46.263Z,19.06
2019-06-10T07:05:46.256Z,19.14
2019-06-10T07:06:46.247Z,19.31
2019-06-10T07:07:46.239Z,19.42
2019-06-10T07:09:00.337Z,19.51
2019-06-10T07:09:47.212Z,19.60
2019-06-10T07:10:46.207Z,19.73
2019-06-10T07:11:46.221Z,19.90
2019-06-10T07:12:46.177Z,20.24
2019-06-10T07:13:46.189Z,20.50
2019-06-10T07:14:46.178Z,20.83
2019-06-10T07:15:47.318Z,21.06
2019-06-10T07:16:46.821Z,21.20
2019-06-10T07:17:46.128Z,21.30
2019-06-10T07:18:50.296Z,21.53
2019-06-10T07:19:46.108Z,21.66
2019-06-10T07:20:46.107Z,21.94
2019-06-10T07:22:05.413Z,21.95
2019-06-10T07:22:47.065Z,21.71
2019-06-10T07:23:47.130Z,21.56
2019-06-10T07:24:47.651Z,21.39
2019-06-10T07:25:47.469Z,21.38
2019-06-10T07:26:54.079Z,21.16
2019-06-10T07:27:47.158Z,21.16
2019-06-10T07:28:47.541Z,21.06
2019-06-10T07:29:47.337Z,20.96
2019-06-10T07:30:51.208Z,20.93
2019-06-10T07:31:50.310Z,20.79
2019-06-10T07:32:47.513Z,20.66
2019-06-10T07:33:47.439Z,20.69
2019-06-10T07:34:46.988Z,20.66
2019-06-10T07:35:45.926Z,20.58
2019-06-10T07:36:53.609Z,20.68
2019-06-10T07:37:46.199Z,20.61
2019-06-10T07:38:49.083Z,20.64
2019-06-10T07:39:45.882Z,20.64
2019-06-10T07:40:55.153Z,20.65
2019-06-10T07:41:47.953Z,20.68
2019-06-10T07:42:45.880Z,20.79
2019-06-10T07:43:49.561Z,20.77
2019-06-10T07:44:45.820Z,20.84
2019-06-10T07:45:47.979Z,20.79
2019-06-10T07:46:45.817Z,20.84
2019-06-10T07:47:45.850Z,20.79
2019-06-10T07:48:48.158Z,20.76
2019-06-10T07:49:45.774Z,20.72
2019-06-10T07:50:45.942Z,20.65
2019-06-10T07:51:46.467Z,20.74
2019-06-10T07:52:46.821Z,20.65
2019-06-10T07:53:46.838Z,20.71
2019-06-10T07:54:45.714Z,20.72
2019-06-10T07:55:46.630Z,20.77
2019-06-10T07:56:50.179Z,20.79
2019-06-10T07:57:45.777Z,20.83
2019-06-10T07:58:47.664Z,20.84
2019-06-10T07:59:46.012Z,20.81
2019-06-10T08:00:48.196Z,20.84
2019-06-10T08:01:55.117Z,20.81
2019-06-10T08:02:46.103Z,20.87
2019-06-10T08:03:46.668Z,20.87
2019-06-10T08:04:46.042Z,20.84
2019-06-10T08:05:46.662Z,21.02
2019-06-10T08:06:45.922Z,20.93
2019-06-10T08:07:47.566Z,21.08
2019-06-10T08:08:45.589Z,21.16
2019-06-10T08:09:45.867Z,21.23
2019-06-10T08:10:46.322Z,21.38
2019-06-10T08:11:48.285Z,21.67
2019-06-10T08:12:46.970Z,21.72
2019-06-10T08:13:46.347Z,21.83
2019-06-10T08:14:45.851Z,21.90
2019-06-10T08:15:46.155Z,21.97
2019-06-10T08:16:46.800Z,21.97
2019-06-10T08:17:45.803Z,22.14
2019-06-10T08:19:11.062Z,22.10
2019-06-10T08:19:50.580Z,22.07
2019-06-10T08:20:47.643Z,22.16
2019-06-10T08:21:48.883Z,22.16
2019-06-10T08:22:54.050Z,22.13
2019-06-10T08:23:47.454Z,22.22
2019-06-10T08:24:45.486Z,22.29
2019-06-10T08:25:51.049Z,22.37
2019-06-10T08:26:47.679Z,22.50
2019-06-10T08:27:47.424Z,22.59
2019-06-10T08:28:46.592Z,22.62
2019-06-10T08:29:48.060Z,22.59
2019-06-10T08:30:46.119Z,22.60
2019-06-10T08:31:48.410Z,22.50
2019-06-10T08:32:47.153Z,22.53
2019-06-10T08:33:47.085Z,22.49
2019-06-10T08:34:47.925Z,22.53
2019-06-10T08:35:55.806Z,22.54
2019-06-10T08:36:50.085Z,22.46
2019-06-10T08:37:46.312Z,22.59
2019-06-10T08:38:48.296Z,22.53
2019-06-10T08:39:46.291Z,22.68
2019-06-10T08:40:47.952Z,22.62
2019-06-10T08:41:48.634Z,22.83
2019-06-10T08:42:47.458Z,22.90
2019-06-10T08:43:47.125Z,22.94
2019-06-10T08:44:47.237Z,22.86
2019-06-10T08:45:47.093Z,23.02
2019-06-10T08:46:46.869Z,23.09
2019-06-10T08:47:47.061Z,23.15
2019-06-10T08:48:47.772Z,23.14
2019-06-10T08:49:46.287Z,23.02
2019-06-10T08:50:48.264Z,23.04
2019-06-10T08:51:48.317Z,22.97
2019-06-10T08:53:03.326Z,22.92
2019-06-10T08:53:48.320Z,23.02
2019-06-10T08:54:47.983Z,23.01
2019-06-10T08:55:47.799Z,23.12
2019-06-10T08:56:47.628Z,23.22
2019-06-10T08:57:48.785Z,23.23
2019-06-10T08:58:48.613Z,23.27
2019-06-10T08:59:47.667Z,23.35
2019-06-10T09:00:47.813Z,23.29
2019-06-10T09:01:46.851Z,23.27
2019-06-10T09:02:49.894Z,23.31
2019-06-10T09:03:48.582Z,23.34
2019-06-10T09:04:47.605Z,23.34
2019-06-10T09:05:49.044Z,23.29
2019-06-10T09:06:47.977Z,23.38
2019-06-10T09:07:49.546Z,23.17
2019-06-10T09:08:49.523Z,23.24
2019-06-10T09:09:49.156Z,23.15
2019-06-10T09:10:49.125Z,23.15
2019-06-10T09:11:47.909Z,23.29
2019-06-10T09:12:49.223Z,23.24
2019-06-10T09:13:48.051Z,23.26
2019-06-10T09:14:46.786Z,23.34
2019-06-10T09:15:55.097Z,23.39
2019-06-10T09:16:47.651Z,23.39
2019-06-10T09:17:47.914Z,23.39
2019-06-10T09:18:49.279Z,23.35
2019-06-10T09:19:48.789Z,23.42
2019-06-10T09:20:49.000Z,23.39
2019-06-10T09:21:49.755Z,23.43
2019-06-10T09:22:54.368Z,23.38
2019-06-10T09:23:49.558Z,23.42
2019-06-10T09:24:49.390Z,23.52
2019-06-10T09:25:48.989Z,23.61
2019-06-10T09:26:48.634Z,23.76
2019-06-10T09:27:47.972Z,24.02
2019-06-10T09:28:49.113Z,24.26
2019-06-10T09:29:49.114Z,24.49
2019-06-10T09:30:50.458Z,24.71
2019-06-10T09:31:48.835Z,24.76
2019-06-10T09:32:48.518Z,24.79
2019-06-10T09:33:50.336Z,24.83
2019-06-10T09:34:49.711Z,24.97
2019-06-10T09:35:48.996Z,25.15
2019-06-10T09:36:49.124Z,25.16
2019-06-10T09:37:48.409Z,25.06
2019-06-10T09:38:48.464Z,25.00
2019-06-10T09:39:51.827Z,24.95
2019-06-10T09:40:49.500Z,25.06
2019-06-10T09:41:55.414Z,25.53
2019-06-10T09:42:48.094Z,26.17
2019-06-10T09:43:50.324Z,26.59
2019-06-10T09:44:48.662Z,26.65
2019-06-10T09:45:46.040Z,27.04
2019-06-10T09:46:47.238Z,27.73
2019-06-10T09:47:47.152Z,28.33
2019-06-10T09:48:49.669Z,28.77
2019-06-10T09:49:47.551Z,29.22
2019-06-10T09:50:49.025Z,29.72
2019-06-10T09:51:48.998Z,30.11
2019-06-10T09:52:48.429Z,30.12
2019-06-10T09:53:52.450Z,30.38
2019-06-10T09:54:50.031Z,30.23
2019-06-10T09:55:49.125Z,29.87
2019-06-10T09:56:47.214Z,30.26
2019-06-10T09:57:46.949Z,30.68
2019-06-10T09:58:47.507Z,31.23
2019-06-10T09:59:47.754Z,31.31
2019-06-10T10:00:48.835Z,31.49
2019-06-10T10:01:50.244Z,31.20
2019-06-10T10:02:48.778Z,30.91
2019-06-10T10:03:49.305Z,30.12
2019-06-10T10:04:50.529Z,29.66
2019-06-10T10:05:55.974Z,29.43
2019-06-10T10:06:48.930Z,29.43
2019-06-10T10:07:48.346Z,29.77
2019-06-10T10:08:49.335Z,29.87
2019-06-10T10:09:48.483Z,30.12
2019-06-10T10:10:49.423Z,30.54
2019-06-10T10:11:47.081Z,31.12
2019-06-10T10:12:46.304Z,31.64
2019-06-10T10:13:47.424Z,32.13
2019-06-10T10:14:48.116Z,32.62
2019-06-10T10:15:44.197Z,32.86
2019-06-10T10:16:49.384Z,32.70
2019-06-10T10:17:47.790Z,33.07
2019-06-10T10:18:47.283Z,33.43
2019-06-10T10:19:46.847Z,33.48
2019-06-10T10:20:47.728Z,33.07
2019-06-10T10:21:47.763Z,32.30
2019-06-10T10:22:46.080Z,31.61
2019-06-10T10:23:54.903Z,30.99
2019-06-10T10:24:46.227Z,30.40
2019-06-10T10:25:46.266Z,30.24
2019-06-10T10:26:47.169Z,30.03
2019-06-10T10:27:48.330Z,29.96
2019-06-10T10:28:48.028Z,29.89
2019-06-10T10:29:46.885Z,29.81
2019-06-10T10:30:46.033Z,29.41
2019-06-10T10:31:47.485Z,29.43
2019-06-10T10:32:47.648Z,29.81
2019-06-10T10:33:44.322Z,29.84
2019-06-10T10:34:47.007Z,30.21
2019-06-10T10:35:46.074Z,30.67
2019-06-10T10:36:46.433Z,30.96
2019-06-10T10:37:44.583Z,31.12
2019-06-10T10:38:44.763Z,30.74
2019-06-10T10:39:45.151Z,30.68
2019-06-10T10:40:47.076Z,30.81
2019-06-10T10:41:45.170Z,30.30
2019-06-10T10:42:49.819Z,30.08
2019-06-10T10:43:47.063Z,29.90
2019-06-10T10:44:46.630Z,29.70
2019-06-10T10:45:47.448Z,29.49
2019-06-10T10:46:45.460Z,29.15
2019-06-10T10:47:44.992Z,28.66
2019-06-10T10:48:44.990Z,28.23
2019-06-10T10:49:44.997Z,27.94
2019-06-10T10:50:45.507Z,27.82
2019-06-10T10:51:44.891Z,27.51
2019-06-10T10:52:45.066Z,27.53
2019-06-10T10:53:48.442Z,27.33
2019-06-10T10:54:46.484Z,27.26
2019-06-10T10:55:45.181Z,27.19
2019-06-10T10:56:46.197Z,27.10
2019-06-10T10:57:43.769Z,26.99
2019-06-10T10:58:46.671Z,26.61
2019-06-10T10:59:45.104Z,26.43
2019-06-10T11:00:45.403Z,26.42
2019-06-10T11:01:44.122Z,26.39
2019-06-10T11:02:44.965Z,26.28
2019-06-10T11:03:45.645Z,26.35
2019-06-10T11:04:44.297Z,26.32
2019-06-10T11:05:46.219Z,26.42
2019-06-10T11:06:44.554Z,26.43
2019-06-10T11:07:44.504Z,26.43
2019-06-10T11:08:45.273Z,26.42
2019-06-10T11:09:44.841Z,26.40
2019-06-10T11:10:45.696Z,26.42
2019-06-10T11:11:44.555Z,26.43
2019-06-10T11:12:44.907Z,26.49
2019-06-10T11:13:45.165Z,26.65
2019-06-10T11:14:44.697Z,26.57
2019-06-10T11:15:45.633Z,26.50
2019-06-10T11:16:45.151Z,26.59
2019-06-10T11:17:43.572Z,26.54
2019-06-10T11:18:43.551Z,26.43
2019-06-10T11:19:43.540Z,26.52
2019-06-10T11:20:43.532Z,26.47
2019-06-10T11:21:43.523Z,26.46
2019-06-10T11:22:43.508Z,26.43
2019-06-10T11:23:43.898Z,26.31
2019-06-10T11:24:44.929Z,26.44
2019-06-10T11:25:43.478Z,26.52
2019-06-10T11:26:43.503Z,26.50
2019-06-10T11:27:43.452Z,26.59
2019-06-10T11:28:43.446Z,26.65
2019-06-10T11:29:43.431Z,26.69
2019-06-10T11:30:43.431Z,26.72
2019-06-10T11:31:43.426Z,26.64
2019-06-10T11:32:43.427Z,26.68
2019-06-10T11:33:43.836Z,26.65
2019-06-10T11:34:43.380Z,26.67
2019-06-10T11:35:43.367Z,26.62
2019-06-10T11:36:43.350Z,26.65
2019-06-10T11:37:43.374Z,26.62
2019-06-10T11:38:43.335Z,26.50
2019-06-10T11:39:43.317Z,26.59
2019-06-10T11:40:43.315Z,26.64
2019-06-10T11:41:43.790Z,27.05
2019-06-10T11:42:43.686Z,27.32
2019-06-10T11:43:43.371Z,27.62
2019-06-10T11:44:43.269Z,27.74
2019-06-10T11:45:48.297Z,28.07
2019-06-10T11:46:44.249Z,28.26
2019-06-10T11:47:43.236Z,28.36
2019-06-10T11:48:44.335Z,28.46
2019-06-10T11:49:43.575Z,28.68
2019-06-10T11:50:43.207Z,28.66
2019-06-10T11:51:43.190Z,28.43
2019-06-10T11:52:43.374Z,28.54
2019-06-10T11:53:44.021Z,28.53
2019-06-10T11:54:55.772Z,28.35
2019-06-10T11:55:44.150Z,28.32
2019-06-10T11:56:43.146Z,28.35
2019-06-10T11:57:43.134Z,28.48
2019-06-10T11:58:43.598Z,28.54
2019-06-10T11:59:43.612Z,28.62
2019-06-10T12:00:43.101Z,28.66
2019-06-10T12:01:43.088Z,28.75
2019-06-10T12:02:43.087Z,28.72
2019-06-10T12:03:43.441Z,28.75
2019-06-10T12:04:43.110Z,28.73
2019-06-10T12:05:43.047Z,28.80
2019-06-10T12:06:43.045Z,28.93
2019-06-10T12:07:43.599Z,29.11
2019-06-10T12:08:43.765Z,29.26
2019-06-10T12:09:43.017Z,29.22
2019-06-10T12:10:43.461Z,29.22
2019-06-10T12:11:43.873Z,29.08
2019-06-10T12:12:43.455Z,28.84
2019-06-10T12:13:43.074Z,28.59
2019-06-10T12:14:43.247Z,28.48
2019-06-10T12:16:20.922Z,28.54
2019-06-10T12:17:17.516Z,28.62
2019-06-10T12:17:51.068Z,28.62
2019-06-10T12:18:44.184Z,28.60
2019-06-10T12:19:43.408Z,28.41
2019-06-10T12:20:42.931Z,28.25
2019-06-10T12:21:43.505Z,28.41
2019-06-10T12:22:42.866Z,28.38
2019-06-10T12:23:43.609Z,28.40
2019-06-10T12:24:43.327Z,28.40
2019-06-10T12:25:43.695Z,28.43
2019-06-10T12:26:43.586Z,28.36
2019-06-10T12:27:43.305Z,28.36
2019-06-10T12:28:43.373Z,28.36
2019-06-10T12:29:42.794Z,28.40
2019-06-10T12:30:42.790Z,28.35
2019-06-10T12:31:43.034Z,28.40
2019-06-10T12:32:42.761Z,28.43
2019-06-10T12:33:42.750Z,28.41
2019-06-10T12:34:46.099Z,28.35
2019-06-10T12:35:42.732Z,28.38
2019-06-10T12:36:42.759Z,28.35
2019-06-10T12:37:42.713Z,28.35
2019-06-10T12:38:43.646Z,28.41
2019-06-10T12:39:42.692Z,28.38
2019-06-10T12:40:42.958Z,28.35
2019-06-10T12:41:43.102Z,28.25
2019-06-10T12:42:42.667Z,28.25
2019-06-10T12:43:43.468Z,28.14
2019-06-10T12:44:42.994Z,27.96
2019-06-10T12:45:43.820Z,27.86
2019-06-10T12:46:43.336Z,27.84
2019-06-10T12:47:42.616Z,27.95
2019-06-10T12:48:42.919Z,28.01
2019-06-10T12:49:42.875Z,28.10
2019-06-10T12:50:42.938Z,28.14
2019-06-10T12:51:42.586Z,28.14
2019-06-10T12:52:42.552Z,28.11